Kimbro, Texas
Current Conditions -  °F | °C
As of 4:15 AM on Thursday 29 Jan 2015 (Local Time) from KEDC Reporting Station
NA  
Wind Chill: 52°   Ceiling: NA
Heat Index: 52°   Visibility: 7mi
Dew Point: 52°   Wind: 7mph
Humidity: 100%   Direction: 210°SSW
Pressure: 30.14"   Gusts: NA
Location:  30.352°N, 97.5205°W
Report Text: KEDC 291015Z AUTO 21006KT 7SM 11/11 A3014 RMK AO2
Loading
Personal Weather Stations






























Interactive Weather Map New forecast layout! Learn more

10-Day Weather Forecast

Advertisements
Track Severe Weather on mobile